Mutsu, Japan

7:47 AM JST on December 19, 2014 (GMT +0900)
Aomori | Change Station
CLOSE
Current Station
Airport
Location: Aomori Airport,
Elevation: 659 ft
Nearby Weather Stations

Elev 659 ft 40.73 °N, 140.69 °E | Updated 7 minutes ago

Light Snow Showers
Light Showers Snow
32 °F
Feels Like 22 °F
N
13
Wind Variable Wind from SW

Today
High -- | Low -- °F
--% Chance of Precip.
Yesterday
High -- | Low -- °F
Precip. -- in
6:56 AM 4:07 PM
Waning Crescent, 12% visible
Pressure 30.30 in
Visibility 3.1 miles
Clouds Few 1000 ft
Scattered Clouds 2000 ft
Mostly Cloudy 3000 ft
Windchill 22 °F
Dew Point 30 °F
Humidity 93%
Rainfall 0.00 in
Snow Depth Not available.
UV 0 out of 12
Pollen Not available.
Air Quality Not available.
Flu Activity Not available.
SPECI RJSA 182240Z 23011KT 5000 R06/1800U -SHSN FEW010 SCT020 BKN030 M00/M01 Q1026 RMK 1ST010 3CU020 7CU030 A3030

More Conditions Fewer Conditions

Pressure 30.30 in
Visibility 3.1 miles
Clouds Few 1000 ft
Scattered Clouds 2000 ft
Mostly Cloudy 3000 ft
Windchill 22 °F
Dew Point 30 °F
Humidity 93%
Rainfall 0.00 in
Snow Depth Not available.
UV 0 out of 12
Pollen Not available.
Air Quality Not available.
Flu Activity Not available.
SPECI RJSA 182240Z 23011KT 5000 R06/1800U -SHSN FEW010 SCT020 BKN030 M00/M01 Q1026 RMK 1ST010 3CU020 7CU030 A3030

More Conditions Fewer Conditions

10-Day Weather Forecast

Almanac

Astronomy

Dec. 19, 2014 Rise Set
Actual Time
Civil Twilight
Nautical Twilight
Astronomical Twilight
Moon
Length of Visible Light
Length of Day
Tomorrow will be .
, % of the Moon is Illuminated

Today's Extremes

Country Highs Country Lows

Community

WunderPhotos

Upload Photos

1,779,010 photos uploaded!

WunderBlogs® & News

Nearby

Air Quality

  Air Quality AQ Index Pollutant
Not available.

Snow Depth

Station Depth Elevation

Earthquake Activity

City Distance Mag. Time & Date
Minimum magnitude displayed is 2.5.

Coastal Water Temperatures

Place Temperature

Nearby Weather Stations